Time;durP1;ratioP1;P1;durP2;ratioP2;P2;SDS_P1;SDS_P2;PMS_P1;PMS_P2;Temp;Humidity;BMP_temperature;BMP_pressure;BME280_temperature;BME280_humidity;BME280_pressure;Samples;Min_cycle;Max_cycle;Signal;HPM_P1;HPM_P2
2023/04/27 00:00:10;;;;;;;14.88;8.18;;;;;;;;;;5045648;28;20031;-65
2023/04/27 00:02:36;;;;;;;13.93;8.23;;;;;;;;;;5043312;28;20045;-65
2023/04/27 00:05:02;;;;;;;15.40;7.47;;;;;;;;;;5046826;28;20020;-66
2023/04/27 00:07:27;;;;;;;12.07;7.97;;;;;;;;;;5044756;28;20023;-65
2023/04/27 00:09:53;;;;;;;14.73;7.88;;;;;;;;;;5046271;28;20028;-65
2023/04/27 00:12:18;;;;;;;18.13;8.05;;;;;;;;;;5048331;28;20678;-66
2023/04/27 00:14:43;;;;;;;12.82;8.93;;;;;;;;;;5055076;28;20016;-66
2023/04/27 00:17:09;;;;;;;11.10;7.47;;;;;;;;;;5051817;28;20032;-67
2023/04/27 00:19:34;;;;;;;15.45;8.13;;;;;;;;;;5044123;28;20020;-66
2023/04/27 00:21:59;;;;;;;11.23;7.90;;;;;;;;;;5043847;28;20028;-66
2023/04/27 00:24:25;;;;;;;16.38;7.60;;;;;;;;;;5051550;28;20149;-67
2023/04/27 00:26:50;;;;;;;10.98;7.28;;;;;;;;;;5048558;28;20059;-67
2023/04/27 00:29:15;;;;;;;9.57;7.20;;;;;;;;;;5050648;28;20054;-66
2023/04/27 00:31:41;;;;;;;13.32;7.65;;;;;;;;;;5069699;28;20027;-66
2023/04/27 00:34:06;;;;;;;11.13;8.15;;;;;;;;;;5053512;28;20020;-66
2023/04/27 00:36:34;;;;;;;11.85;8.20;;;;;;;;;;5054185;28;20312;-66
2023/04/27 00:38:59;;;;;;;14.65;8.75;;;;;;;;;;5044867;28;20024;-67
2023/04/27 00:41:25;;;;;;;14.00;8.80;;;;;;;;;;5047376;28;20028;-66
2023/04/27 00:43:50;;;;;;;14.95;8.70;;;;;;;;;;5049964;28;20852;-66
2023/04/27 00:46:16;;;;;;;14.18;8.35;;;;;;;;;;5047099;28;20039;-66
2023/04/27 00:48:41;;;;;;;15.95;8.30;;;;;;;;;;5051445;28;20846;-66
2023/04/27 00:51:07;;;;;;;14.70;8.63;;;;;;;;;;5063396;28;20107;-66
2023/04/27 00:53:32;;;;;;;18.33;8.85;;;;;;;;;;5046505;28;20024;-66
2023/04/27 00:55:58;;;;;;;13.70;8.30;;;;;;;;;;5047085;28;20012;-65
2023/04/27 00:58:23;;;;;;;11.80;9.25;;;;;;;;;;5056585;28;20576;-66
2023/04/27 01:00:49;;;;;;;11.35;8.57;;;;;;;;;;5059657;28;20046;-66
2023/04/27 01:03:15;;;;;;;12.95;9.07;;;;;;;;;;5055896;28;20032;-66
2023/04/27 01:05:40;;;;;;;15.38;9.73;;;;;;;;;;5057103;28;20148;-66
2023/04/27 01:08:06;;;;;;;13.52;8.65;;;;;;;;;;5057796;28;20031;-66
2023/04/27 01:10:31;;;;;;;12.88;7.68;;;;;;;;;;5050538;28;20848;-66
2023/04/27 01:12:56;;;;;;;15.38;8.73;;;;;;;;;;5050832;28;20126;-66
2023/04/27 01:15:21;;;;;;;17.00;9.45;;;;;;;;;;5052686;28;20020;-66
2023/04/27 01:17:47;;;;;;;11.93;7.82;;;;;;;;;;5039446;28;20142;-66
2023/04/27 01:20:13;;;;;;;16.40;9.00;;;;;;;;;;5041622;28;20028;-66
2023/04/27 01:22:39;;;;;;;10.85;7.68;;;;;;;;;;5046089;28;20123;-65
2023/04/27 01:25:05;;;;;;;11.85;8.45;;;;;;;;;;5038377;28;20024;-66
2023/04/27 01:27:31;;;;;;;18.17;8.55;;;;;;;;;;5052492;28;20479;-66
2023/04/27 01:29:56;;;;;;;15.10;9.98;;;;;;;;;;5047320;28;20019;-66
2023/04/27 01:32:21;;;;;;;12.52;9.02;;;;;;;;;;5048030;28;20027;-66
2023/04/27 01:34:47;;;;;;;19.02;9.38;;;;;;;;;;5048675;28;20115;-66
2023/04/27 01:37:13;;;;;;;13.57;9.45;;;;;;;;;;5066068;28;20070;-67
2023/04/27 01:39:38;;;;;;;13.32;8.73;;;;;;;;;;5043594;28;20727;-67
2023/04/27 01:42:03;;;;;;;16.58;9.25;;;;;;;;;;5046886;28;20054;-66
2023/04/27 01:44:28;;;;;;;14.38;9.57;;;;;;;;;;5055402;28;20021;-66
2023/04/27 01:46:54;;;;;;;11.70;8.63;;;;;;;;;;5049058;28;20882;-66
2023/04/27 01:49:19;;;;;;;12.02;9.48;;;;;;;;;;5050286;28;20028;-66
2023/04/27 01:51:44;;;;;;;16.88;9.18;;;;;;;;;;5051414;28;20141;-66
2023/04/27 01:54:10;;;;;;;19.60;9.68;;;;;;;;;;5037823;28;20944;-66
2023/04/27 01:56:35;;;;;;;14.25;9.63;;;;;;;;;;5033514;28;20028;-66
2023/04/27 01:59:01;;;;;;;15.05;9.60;;;;;;;;;;5045439;28;20063;-66
2023/04/27 02:01:26;;;;;;;16.17;8.98;;;;;;;;;;5057644;28;20821;-66
2023/04/27 02:03:52;;;;;;;14.32;9.57;;;;;;;;;;5052056;28;20071;-66
2023/04/27 02:06:17;;;;;;;13.50;9.55;;;;;;;;;;5050222;28;20554;-66
2023/04/27 02:08:42;;;;;;;13.32;8.48;;;;;;;;;;5044946;28;20911;-66
2023/04/27 02:11:08;;;;;;;11.45;8.80;;;;;;;;;;5055746;28;20031;-66
2023/04/27 02:13:33;;;;;;;17.80;9.45;;;;;;;;;;5057295;28;20016;-66
2023/04/27 02:16:00;;;;;;;13.52;9.05;;;;;;;;;;5051840;28;20085;-66
2023/04/27 02:18:26;;;;;;;18.00;9.35;;;;;;;;;;5057442;28;20019;-66
2023/04/27 02:20:51;;;;;;;15.32;8.25;;;;;;;;;;5050294;28;20550;-66
2023/04/27 02:23:17;;;;;;;19.90;9.70;;;;;;;;;;5049187;28;20027;-66
2023/04/27 02:25:45;;;;;;;12.77;9.18;;;;;;;;;;5045075;28;20830;-66
2023/04/27 02:28:11;;;;;;;15.40;9.57;;;;;;;;;;5044290;28;20031;-66
2023/04/27 02:30:36;;;;;;;13.68;8.13;;;;;;;;;;5044217;28;20073;-65
2023/04/27 02:33:01;;;;;;;16.05;9.23;;;;;;;;;;5050999;28;20028;-66
2023/04/27 02:35:26;;;;;;;14.68;9.27;;;;;;;;;;5052064;28;20069;-66
2023/04/27 02:37:52;;;;;;;18.05;9.18;;;;;;;;;;5044999;28;20812;-66
2023/04/27 02:40:17;;;;;;;16.00;8.38;;;;;;;;;;5043259;28;20035;-66
2023/04/27 02:42:42;;;;;;;17.90;9.43;;;;;;;;;;5043220;28;20034;-67
2023/04/27 02:45:08;;;;;;;13.32;9.00;;;;;;;;;;5054564;28;20429;-66
2023/04/27 02:47:34;;;;;;;13.18;8.68;;;;;;;;;;5050148;28;20604;-66
2023/04/27 02:49:59;;;;;;;14.30;8.35;;;;;;;;;;5050869;28;20810;-66
2023/04/27 02:52:25;;;;;;;12.98;8.57;;;;;;;;;;5054162;28;20061;-66
2023/04/27 02:54:50;;;;;;;12.25;8.70;;;;;;;;;;5046515;28;20090;-66
2023/04/27 02:57:15;;;;;;;14.43;9.25;;;;;;;;;;5054383;28;21160;-66
2023/04/27 02:59:41;;;;;;;12.43;8.27;;;;;;;;;;5055116;28;20162;-65
2023/04/27 03:02:06;;;;;;;13.50;9.15;;;;;;;;;;5050548;28;20132;-65
2023/04/27 03:04:31;;;;;;;14.38;10.05;;;;;;;;;;5052979;28;20834;-65
2023/04/27 03:06:57;;;;;;;18.30;10.95;;;;;;;;;;5045002;28;20055;-65
2023/04/27 03:09:22;;;;;;;18.63;10.00;;;;;;;;;;5044167;28;20028;-65
2023/04/27 03:11:47;;;;;;;15.38;10.18;;;;;;;;;;5045342;28;20028;-65
2023/04/27 03:14:12;;;;;;;15.77;10.25;;;;;;;;;;5043946;28;20081;-65
2023/04/27 03:16:38;;;;;;;15.82;9.80;;;;;;;;;;5043331;28;20024;-65
2023/04/27 03:19:03;;;;;;;17.85;10.25;;;;;;;;;;5046063;28;20139;-65
2023/04/27 03:21:28;;;;;;;15.77;10.15;;;;;;;;;;5042652;28;20908;-65
2023/04/27 03:23:54;;;;;;;20.92;10.57;;;;;;;;;;5046555;28;20834;-64
2023/04/27 03:26:19;;;;;;;19.63;11.25;;;;;;;;;;5044272;28;21198;-64
2023/04/27 03:28:44;;;;;;;15.80;11.00;;;;;;;;;;5045526;28;20024;-64
2023/04/27 03:31:11;;;;;;;15.23;9.68;;;;;;;;;;5049484;28;20032;-65
2023/04/27 03:33:36;;;;;;;18.48;10.23;;;;;;;;;;5039051;28;20016;-66
2023/04/27 03:36:03;;;;;;;17.92;10.00;;;;;;;;;;5044836;28;20908;-64
2023/04/27 03:38:28;;;;;;;15.02;10.50;;;;;;;;;;5048060;28;20131;-64
2023/04/27 03:40:53;;;;;;;15.15;10.52;;;;;;;;;;5049903;28;20031;-64
2023/04/27 03:43:19;;;;;;;17.23;10.05;;;;;;;;;;5053485;28;20059;-64
2023/04/27 03:45:44;;;;;;;16.23;10.48;;;;;;;;;;5065426;28;20081;-66
2023/04/27 03:48:10;;;;;;;19.70;10.32;;;;;;;;;;5051217;28;20094;-64
2023/04/27 03:50:35;;;;;;;14.73;10.20;;;;;;;;;;5057201;28;20020;-64
2023/04/27 03:53:00;;;;;;;17.25;11.38;;;;;;;;;;5050822;28;20032;-65
2023/04/27 03:55:26;;;;;;;20.92;10.18;;;;;;;;;;5040097;28;20031;-64
2023/04/27 03:57:51;;;;;;;14.77;9.93;;;;;;;;;;5037112;28;20060;-64
2023/04/27 04:00:17;;;;;;;15.77;11.10;;;;;;;;;;5054108;28;20089;-64
2023/04/27 04:02:42;;;;;;;16.52;10.70;;;;;;;;;;5054645;28;20025;-64
2023/04/27 04:05:08;;;;;;;15.50;10.13;;;;;;;;;;5045571;28;20020;-65
2023/04/27 04:07:33;;;;;;;15.35;10.25;;;;;;;;;;5047315;28;20078;-65
2023/04/27 04:09:59;;;;;;;20.52;10.80;;;;;;;;;;5045927;28;20282;-65
2023/04/27 04:12:24;;;;;;;20.23;10.98;;;;;;;;;;5041627;28;20019;-65
2023/04/27 04:14:50;;;;;;;15.20;10.57;;;;;;;;;;5044631;28;20097;-65
2023/04/27 04:17:15;;;;;;;18.13;11.95;;;;;;;;;;5044835;28;20031;-65
2023/04/27 04:19:41;;;;;;;18.52;11.35;;;;;;;;;;5041993;28;20041;-65
2023/04/27 04:22:06;;;;;;;17.75;10.38;;;;;;;;;;5050568;28;20039;-66
2023/04/27 04:24:31;;;;;;;15.90;10.43;;;;;;;;;;5048364;28;21019;-65
2023/04/27 04:26:57;;;;;;;15.30;11.18;;;;;;;;;;5061446;28;20028;-65
2023/04/27 04:29:23;;;;;;;15.65;10.85;;;;;;;;;;5047360;28;20016;-65
2023/04/27 04:31:48;;;;;;;14.82;10.40;;;;;;;;;;5045233;28;20863;-65
2023/04/27 04:34:14;;;;;;;17.55;11.60;;;;;;;;;;5045298;28;20040;-65
2023/04/27 04:36:39;;;;;;;17.83;11.02;;;;;;;;;;5047411;28;20051;-64
2023/04/27 04:39:05;;;;;;;16.17;10.20;;;;;;;;;;5046064;28;20032;-65
2023/04/27 04:41:31;;;;;;;19.70;10.70;;;;;;;;;;5049809;28;20110;-65
2023/04/27 04:43:57;;;;;;;15.57;10.27;;;;;;;;;;5047593;28;20028;-65
2023/04/27 04:46:23;;;;;;;16.45;10.63;;;;;;;;;;5049151;28;20028;-65
2023/04/27 04:48:49;;;;;;;16.23;10.32;;;;;;;;;;5049553;28;20035;-65
2023/04/27 04:51:15;;;;;;;15.65;9.98;;;;;;;;;;5045340;28;20035;-65
2023/04/27 04:53:40;;;;;;;21.55;11.65;;;;;;;;;;5045501;28;20020;-65
2023/04/27 04:56:12;;;;;;;15.57;10.82;;;;;;;;;;5046953;28;20047;-65
2023/04/27 04:58:38;;;;;;;15.40;11.13;;;;;;;;;;5047611;28;20032;-65
2023/04/27 05:01:03;;;;;;;15.30;10.88;;;;;;;;;;5046809;28;20028;-65
2023/04/27 05:03:29;;;;;;;20.00;11.10;;;;;;;;;;5045706;28;20851;-65
2023/04/27 05:05:54;;;;;;;16.15;10.88;;;;;;;;;;5047488;28;20022;-65
2023/04/27 05:08:19;;;;;;;20.33;10.73;;;;;;;;;;5043449;28;20758;-65
2023/04/27 05:10:51;;;;;;;21.60;10.82;;;;;;;;;;5044304;28;20020;-65
2023/04/27 05:13:17;;;;;;;16.10;10.00;;;;;;;;;;5042988;28;20013;-65
2023/04/27 05:15:42;;;;;;;17.83;11.20;;;;;;;;;;5040973;28;20135;-65
2023/04/27 05:18:07;;;;;;;17.20;10.88;;;;;;;;;;5049040;28;20032;-65
2023/04/27 05:20:36;;;;;;;21.75;11.07;;;;;;;;;;5038797;28;20936;-65
2023/04/27 05:23:01;;;;;;;14.88;10.73;;;;;;;;;;5039875;28;20020;-65
2023/04/27 05:25:33;;;;;;;19.90;11.27;;;;;;;;;;5039822;28;20897;-65
2023/04/27 05:27:58;;;;;;;14.45;10.95;;;;;;;;;;5044483;28;20021;-65
2023/04/27 05:30:24;;;;;;;17.40;11.95;;;;;;;;;;5035830;28;20047;-65
2023/04/27 05:32:49;;;;;;;18.25;10.50;;;;;;;;;;5053886;28;20084;-65
2023/04/27 05:35:15;;;;;;;23.13;10.93;;;;;;;;;;5052539;28;20022;-64
2023/04/27 05:37:40;;;;;;;15.55;11.20;;;;;;;;;;5039293;28;20037;-65
2023/04/27 05:40:08;;;;;;;18.65;10.77;;;;;;;;;;5031884;28;20039;-65
2023/04/27 05:42:33;;;;;;;17.35;10.75;;;;;;;;;;5042917;28;20877;-65
2023/04/27 05:44:58;;;;;;;22.52;11.23;;;;;;;;;;5045690;28;20063;-65
2023/04/27 05:47:24;;;;;;;17.42;11.10;;;;;;;;;;5047456;28;20028;-64
2023/04/27 05:49:52;;;;;;;15.73;10.82;;;;;;;;;;5046310;28;20020;-64
2023/04/27 05:52:17;;;;;;;14.35;10.57;;;;;;;;;;5047662;28;20023;-65
2023/04/27 05:54:46;;;;;;;21.85;11.00;;;;;;;;;;5044822;28;20024;-64
2023/04/27 05:57:11;;;;;;;16.80;10.10;;;;;;;;;;5062541;28;20024;-64
2023/04/27 05:59:37;;;;;;;15.45;10.63;;;;;;;;;;5070693;28;20075;-64
2023/04/27 06:02:02;;;;;;;23.50;11.02;;;;;;;;;;5074781;28;20716;-64
2023/04/27 06:04:28;;;;;;;18.60;11.23;;;;;;;;;;5060383;28;20078;-64
2023/04/27 06:06:53;;;;;;;18.33;10.68;;;;;;;;;;5064192;28;20032;-64
2023/04/27 06:09:19;;;;;;;18.92;10.32;;;;;;;;;;5065507;28;20036;-64
2023/04/27 06:11:46;;;;;;;17.38;10.70;;;;;;;;;;5061118;28;20256;-65
2023/04/27 06:14:11;;;;;;;16.92;9.98;;;;;;;;;;5068508;28;21155;-64
2023/04/27 06:16:37;;;;;;;15.82;10.30;;;;;;;;;;5061662;28;20024;-64
2023/04/27 06:19:02;;;;;;;15.30;10.90;;;;;;;;;;5061163;28;20106;-64
2023/04/27 06:21:30;;;;;;;17.92;10.68;;;;;;;;;;5054472;28;20477;-65
2023/04/27 06:23:56;;;;;;;20.73;9.93;;;;;;;;;;5066195;28;20076;-64
2023/04/27 06:26:21;;;;;;;16.27;10.68;;;;;;;;;;5069842;28;20020;-64
2023/04/27 06:28:46;;;;;;;17.33;9.88;;;;;;;;;;5068368;28;20028;-64
2023/04/27 06:31:11;;;;;;;15.43;10.02;;;;;;;;;;5070317;28;20135;-64
2023/04/27 06:33:37;;;;;;;15.45;10.30;;;;;;;;;;5065069;28;20050;-64
2023/04/27 06:36:02;;;;;;;22.40;9.85;;;;;;;;;;5068096;28;20020;-64
2023/04/27 06:38:27;;;;;;;17.45;10.50;;;;;;;;;;5062147;28;20149;-64
2023/04/27 06:40:53;;;;;;;18.40;9.75;;;;;;;;;;5064569;28;20043;-64
2023/04/27 06:43:18;;;;;;;16.40;10.23;;;;;;;;;;5061725;28;20040;-64
2023/04/27 06:45:43;;;;;;;17.00;9.65;;;;;;;;;;5069440;28;20635;-64
2023/04/27 06:48:08;;;;;;;12.68;9.30;;;;;;;;;;5069518;28;20039;-65
2023/04/27 06:50:34;;;;;;;16.00;10.43;;;;;;;;;;5061718;28;20016;-66
2023/04/27 06:52:59;;;;;;;18.00;10.18;;;;;;;;;;5052071;28;20024;-65
2023/04/27 06:55:24;;;;;;;11.45;8.68;;;;;;;;;;5056524;28;20901;-66
2023/04/27 06:57:50;;;;;;;17.77;9.18;;;;;;;;;;5048051;28;20023;-65
2023/04/27 07:00:15;;;;;;;11.18;8.90;;;;;;;;;;5054241;28;20024;-65
2023/04/27 07:02:40;;;;;;;13.50;9.38;;;;;;;;;;5045442;28;20851;-65
2023/04/27 07:05:06;;;;;;;15.50;9.63;;;;;;;;;;5051083;28;20035;-66
2023/04/27 07:07:31;;;;;;;13.40;8.43;;;;;;;;;;5033197;28;20064;-65
2023/04/27 07:09:56;;;;;;;15.15;9.10;;;;;;;;;;5042875;28;20036;-65
2023/04/27 07:12:22;;;;;;;20.83;8.95;;;;;;;;;;5045553;28;20028;-66
2023/04/27 07:14:49;;;;;;;15.35;9.52;;;;;;;;;;5045440;28;20036;-66
2023/04/27 07:17:15;;;;;;;14.80;9.13;;;;;;;;;;5037307;28;20020;-65
2023/04/27 07:19:40;;;;;;;15.02;8.20;;;;;;;;;;5046229;28;20028;-65
2023/04/27 07:22:06;;;;;;;14.80;9.35;;;;;;;;;;5041191;28;20028;-66
2023/04/27 07:24:31;;;;;;;13.57;8.57;;;;;;;;;;5043861;28;20496;-64
2023/04/27 07:26:56;;;;;;;17.05;9.40;;;;;;;;;;5048591;28;20035;-65
2023/04/27 07:29:22;;;;;;;14.60;8.50;;;;;;;;;;5033773;28;20139;-65
2023/04/27 07:31:47;;;;;;;13.90;8.00;;;;;;;;;;5046158;28;20063;-64
2023/04/27 07:34:12;;;;;;;12.50;8.57;;;;;;;;;;5053037;28;20028;-64
2023/04/27 07:36:38;;;;;;;14.88;8.40;;;;;;;;;;5047476;28;21017;-64
2023/04/27 07:39:05;;;;;;;11.43;8.55;;;;;;;;;;5047427;28;20913;-64
2023/04/27 07:41:32;;;;;;;11.07;7.30;;;;;;;;;;5048345;28;20068;-65
2023/04/27 07:43:58;;;;;;;15.93;8.63;;;;;;;;;;5046249;28;20320;-64
2023/04/27 07:46:23;;;;;;;10.63;7.72;;;;;;;;;;5042089;28;20063;-64
2023/04/27 07:48:49;;;;;;;11.48;7.35;;;;;;;;;;5053621;28;20032;-65
2023/04/27 07:51:16;;;;;;;17.67;8.85;;;;;;;;;;5042803;28;20924;-64
2023/04/27 07:53:41;;;;;;;11.68;7.75;;;;;;;;;;5043539;28;20020;-64
2023/04/27 07:56:07;;;;;;;16.10;8.60;;;;;;;;;;5048024;28;20032;-65
2023/04/27 07:58:32;;;;;;;13.07;8.55;;;;;;;;;;5047080;28;20032;-64
2023/04/27 08:00:57;;;;;;;11.98;7.38;;;;;;;;;;5069701;28;20037;-65
2023/04/27 08:03:23;;;;;;;16.63;9.52;;;;;;;;;;5070612;28;20085;-65
2023/04/27 08:05:48;;;;;;;13.93;8.38;;;;;;;;;;5071970;28;20462;-65
2023/04/27 08:08:13;;;;;;;14.32;8.13;;;;;;;;;;5079486;28;20132;-64
2023/04/27 08:10:39;;;;;;;12.48;8.35;;;;;;;;;;5072167;28;20016;-64
2023/04/27 08:13:08;;;;;;;10.30;7.45;;;;;;;;;;5068139;28;20470;-65
2023/04/27 08:15:33;;;;;;;12.45;8.57;;;;;;;;;;5080286;28;20051;-66
2023/04/27 08:17:59;;;;;;;10.95;7.03;;;;;;;;;;5076563;28;20107;-64
2023/04/27 08:20:24;;;;;;;19.55;7.93;;;;;;;;;;5052048;28;20024;-64
2023/04/27 08:22:49;;;;;;;11.05;7.93;;;;;;;;;;5074001;28;20076;-66
2023/04/27 08:25:15;;;;;;;11.95;7.72;;;;;;;;;;5076786;28;20470;-65
2023/04/27 08:27:40;;;;;;;10.57;7.20;;;;;;;;;;5074739;28;20055;-64
2023/04/27 08:30:06;;;;;;;10.82;6.78;;;;;;;;;;5078409;28;20433;-64
2023/04/27 08:32:31;;;;;;;12.00;7.78;;;;;;;;;;5077179;28;20028;-64
2023/04/27 08:34:57;;;;;;;13.25;8.10;;;;;;;;;;5065186;28;20458;-64
2023/04/27 08:37:22;;;;;;;13.07;6.88;;;;;;;;;;5067754;28;20865;-65
2023/04/27 08:39:48;;;;;;;9.18;6.65;;;;;;;;;;5052628;28;20050;-64
2023/04/27 08:42:13;;;;;;;13.70;7.75;;;;;;;;;;5064167;28;20463;-64
2023/04/27 08:44:39;;;;;;;14.20;7.10;;;;;;;;;;5079294;28;20817;-65
2023/04/27 08:47:04;;;;;;;10.23;7.20;;;;;;;;;;5083190;28;20016;-64
2023/04/27 08:49:29;;;;;;;12.15;7.50;;;;;;;;;;5073153;28;20036;-66
2023/04/27 08:51:55;;;;;;;9.70;6.85;;;;;;;;;;5062412;28;20119;-69
2023/04/27 08:54:20;;;;;;;12.90;7.40;;;;;;;;;;5069690;28;20923;-66
2023/04/27 08:56:45;;;;;;;13.18;7.63;;;;;;;;;;5069854;28;20058;-63
2023/04/27 08:59:14;;;;;;;12.95;6.68;;;;;;;;;;5071403;28;20490;-63
2023/04/27 09:01:47;;;;;;;16.15;7.03;;;;;;;;;;5060266;28;20029;-61
2023/04/27 09:04:12;;;;;;;12.55;6.05;;;;;;;;;;5062061;28;20020;-62
2023/04/27 09:06:38;;;;;;;8.75;6.50;;;;;;;;;;5054180;28;20028;-64
2023/04/27 09:09:03;;;;;;;12.93;6.47;;;;;;;;;;5058971;28;20864;-64
2023/04/27 09:11:33;;;;;;;15.93;7.00;;;;;;;;;;5056837;28;20016;-60
2023/04/27 09:14:00;;;;;;;11.15;6.93;;;;;;;;;;5050862;28;20020;-59
2023/04/27 09:16:26;;;;;;;10.27;6.40;;;;;;;;;;5073330;28;20504;-62
2023/04/27 09:18:52;;;;;;;10.32;6.68;;;;;;;;;;5062245;28;20134;-62
2023/04/27 09:21:21;;;;;;;10.07;6.68;;;;;;;;;;5065436;28;20028;-65
2023/04/27 09:23:47;;;;;;;17.00;5.60;;;;;;;;;;5057649;28;20814;-65
2023/04/27 09:26:18;;;;;;;8.05;5.80;;;;;;;;;;5066720;28;20024;-64
2023/04/27 09:28:46;;;;;;;9.65;5.70;;;;;;;;;;5057417;28;20131;-64
2023/04/27 09:31:12;;;;;;;9.38;6.13;;;;;;;;;;5056258;28;20340;-64
2023/04/27 09:33:37;;;;;;;9.70;6.47;;;;;;;;;;5049693;28;20985;-65
2023/04/27 09:36:04;;;;;;;18.50;6.35;;;;;;;;;;5046110;28;20024;-64
2023/04/27 09:38:30;;;;;;;9.60;6.72;;;;;;;;;;5076211;28;20016;-62
2023/04/27 09:40:55;;;;;;;10.93;6.60;;;;;;;;;;5074966;28;20028;-62
2023/04/27 09:43:22;;;;;;;10.07;6.70;;;;;;;;;;5064452;28;20435;-62
2023/04/27 09:45:47;;;;;;;10.88;6.30;;;;;;;;;;5077098;28;20054;-63
2023/04/27 09:48:13;;;;;;;10.25;6.15;;;;;;;;;;5075330;28;20036;-63
2023/04/27 09:50:39;;;;;;;9.90;6.40;;;;;;;;;;5077499;28;20493;-62
2023/04/27 09:53:06;;;;;;;11.18;7.07;;;;;;;;;;5078996;28;20371;-63
2023/04/27 09:55:35;;;;;;;9.70;6.78;;;;;;;;;;5081384;28;20035;-63
2023/04/27 09:58:06;;;;;;;10.40;6.70;;;;;;;;;;5062576;28;20166;-61
2023/04/27 10:00:31;;;;;;;11.00;6.15;;;;;;;;;;5084716;28;20131;-61
2023/04/27 10:03:15;;;;;;;14.35;6.05;;;;;;;;;;5071937;28;20040;-62
2023/04/27 10:05:41;;;;;;;10.80;5.70;;;;;;;;;;5080875;28;20024;-63
2023/04/27 10:08:07;;;;;;;8.93;6.07;;;;;;;;;;5085166;28;20028;-64
2023/04/27 10:10:41;;;;;;;10.80;6.43;;;;;;;;;;5067536;28;20016;-64
2023/04/27 10:13:06;;;;;;;10.05;6.07;;;;;;;;;;5072587;28;20429;-62
2023/04/27 10:15:31;;;;;;;8.95;5.70;;;;;;;;;;5073191;28;20032;-63
2023/04/27 10:18:02;;;;;;;11.23;4.80;;;;;;;;;;5079396;28;20115;-62
2023/04/27 10:20:31;;;;;;;7.68;5.20;;;;;;;;;;5066480;28;20074;-62
2023/04/27 10:22:57;;;;;;;6.97;5.28;;;;;;;;;;5070186;28;20732;-62
2023/04/27 10:25:26;;;;;;;7.38;5.65;;;;;;;;;;5065202;28;20031;-62
2023/04/27 10:27:52;;;;;;;7.18;5.90;;;;;;;;;;5057120;28;20582;-62
2023/04/27 10:30:18;;;;;;;10.55;6.60;;;;;;;;;;5074017;28;20110;-63
2023/04/27 10:32:51;;;;;;;8.80;5.43;;;;;;;;;;5080463;28;20798;-63
2023/04/27 10:35:16;;;;;;;10.90;6.32;;;;;;;;;;5073685;28;20028;-62
2023/04/27 10:37:42;;;;;;;6.38;4.88;;;;;;;;;;5069813;28;20024;-62
2023/04/27 10:40:09;;;;;;;10.18;5.45;;;;;;;;;;5080435;28;20055;-62
2023/04/27 10:42:34;;;;;;;9.35;5.50;;;;;;;;;;5063998;28;20077;-63
2023/04/27 10:45:00;;;;;;;7.93;5.70;;;;;;;;;;5061686;28;21150;-63
2023/04/27 10:47:35;;;;;;;8.55;5.50;;;;;;;;;;5076517;28;20508;-63
2023/04/27 10:50:01;;;;;;;8.43;5.05;;;;;;;;;;5067210;28;20522;-65
2023/04/27 10:52:26;;;;;;;11.90;6.13;;;;;;;;;;5077162;28;20022;-65
2023/04/27 10:54:52;;;;;;;11.05;5.45;;;;;;;;;;5062714;28;20020;-62
2023/04/27 10:57:17;;;;;;;6.38;4.38;;;;;;;;;;5056424;28;20078;-65
2023/04/27 10:59:47;;;;;;;8.40;4.47;;;;;;;;;;5058291;28;20984;-64
2023/04/27 11:02:12;;;;;;;7.35;4.80;;;;;;;;;;5047340;28;20039;-63
2023/04/27 11:04:39;;;;;;;7.47;4.15;;;;;;;;;;5059943;28;20024;-61
2023/04/27 11:07:04;;;;;;;9.15;5.50;;;;;;;;;;5039975;28;20096;-62
2023/04/27 11:09:30;;;;;;;11.35;6.07;;;;;;;;;;5062514;28;20486;-64
2023/04/27 11:11:55;;;;;;;16.45;6.10;;;;;;;;;;5060676;28;20036;-63
2023/04/27 11:14:20;;;;;;;8.45;4.93;;;;;;;;;;5057986;28;20036;-64
2023/04/27 11:16:46;;;;;;;10.73;5.55;;;;;;;;;;5062354;28;20070;-64
2023/04/27 11:19:12;;;;;;;8.25;4.40;;;;;;;;;;5076347;28;20093;-64
2023/04/27 11:21:37;;;;;;;7.95;5.05;;;;;;;;;;5046991;28;20504;-65
2023/04/27 11:24:03;;;;;;;9.23;5.13;;;;;;;;;;5045811;28;20031;-65
2023/04/27 11:26:29;;;;;;;10.45;5.57;;;;;;;;;;5042720;28;20031;-65
2023/04/27 11:28:58;;;;;;;7.78;4.68;;;;;;;;;;5063857;28;20036;-65
2023/04/27 11:31:24;;;;;;;9.20;4.85;;;;;;;;;;5059263;28;20020;-66
2023/04/27 11:33:50;;;;;;;7.53;5.00;;;;;;;;;;5077131;28;20035;-65
2023/04/27 11:36:16;;;;;;;7.30;4.38;;;;;;;;;;5070792;28;20123;-65
2023/04/27 11:38:42;;;;;;;6.03;4.63;;;;;;;;;;5072539;28;20028;-65
2023/04/27 11:41:07;;;;;;;10.75;4.97;;;;;;;;;;5069876;28;20048;-65
2023/04/27 11:43:33;;;;;;;7.43;4.93;;;;;;;;;;5049876;28;20127;-64
2023/04/27 11:46:09;;;;;;;6.00;4.90;;;;;;;;;;5049258;28;20024;-64
2023/04/27 11:48:36;;;;;;;10.38;5.90;;;;;;;;;;5046968;28;20031;-66
2023/04/27 11:51:02;;;;;;;9.98;5.57;;;;;;;;;;5049263;28;20035;-65
2023/04/27 11:53:34;;;;;;;9.23;5.85;;;;;;;;;;5054105;28;20934;-66
2023/04/27 11:56:01;;;;;;;9.63;5.00;;;;;;;;;;5075095;28;20020;-66
2023/04/27 11:58:27;;;;;;;8.25;5.55;;;;;;;;;;5081021;28;20028;-67
2023/04/27 12:00:52;;;;;;;7.20;4.88;;;;;;;;;;5082685;28;20914;-66
2023/04/27 12:03:17;;;;;;;8.97;5.00;;;;;;;;;;5085476;28;20130;-63
2023/04/27 12:05:47;;;;;;;14.40;5.72;;;;;;;;;;5079651;28;20690;-62
2023/04/27 12:08:12;;;;;;;8.48;5.13;;;;;;;;;;5048520;28;20987;-64
2023/04/27 12:10:38;;;;;;;7.80;5.20;;;;;;;;;;5048664;28;20027;-64
2023/04/27 12:13:04;;;;;;;9.30;5.07;;;;;;;;;;5067922;28;20294;-66
2023/04/27 12:15:29;;;;;;;7.13;4.87;;;;;;;;;;5063518;28;20539;-64
2023/04/27 12:17:54;;;;;;;7.03;4.53;;;;;;;;;;5077038;28;20273;-64
2023/04/27 12:20:20;;;;;;;11.33;6.90;;;;;;;;;;5066320;28;20298;-63
2023/04/27 12:22:45;;;;;;;9.43;6.13;;;;;;;;;;5066876;28;20297;-64
2023/04/27 12:25:10;;;;;;;8.38;5.95;;;;;;;;;;5066314;28;20032;-64
2023/04/27 12:27:36;;;;;;;8.52;5.63;;;;;;;;;;5060572;28;20472;-64
2023/04/27 12:30:01;;;;;;;9.65;6.63;;;;;;;;;;5060509;28;20143;-66
2023/04/27 12:32:26;;;;;;;21.60;6.93;;;;;;;;;;5057501;28;20024;-64
2023/04/27 12:34:52;;;;;;;10.57;6.80;;;;;;;;;;5052465;28;20674;-63
2023/04/27 12:37:17;;;;;;;10.32;6.78;;;;;;;;;;5054839;28;20874;-64
2023/04/27 12:39:42;;;;;;;15.60;8.00;;;;;;;;;;5048280;28;20881;-63
2023/04/27 12:42:08;;;;;;;9.10;6.60;;;;;;;;;;5048738;28;20055;-64
2023/04/27 12:44:33;;;;;;;14.40;7.47;;;;;;;;;;5057235;28;20288;-64
2023/04/27 12:46:58;;;;;;;8.52;5.57;;;;;;;;;;5044727;28;20063;-64
2023/04/27 12:49:23;;;;;;;8.43;5.87;;;;;;;;;;5034415;28;20027;-63
2023/04/27 12:51:50;;;;;;;10.35;7.30;;;;;;;;;;5057620;28;20381;-64
2023/04/27 12:54:16;;;;;;;14.57;6.75;;;;;;;;;;5061113;28;20098;-63
2023/04/27 12:56:41;;;;;;;9.80;7.10;;;;;;;;;;5066486;28;20022;-64
2023/04/27 12:59:06;;;;;;;8.32;7.15;;;;;;;;;;5072163;28;20043;-68
2023/04/27 13:01:32;;;;;;;16.63;8.17;;;;;;;;;;5075982;28;20073;-63
2023/04/27 13:04:01;;;;;;;14.82;7.38;;;;;;;;;;5075711;28;20284;-64
2023/04/27 13:06:27;;;;;;;12.73;7.22;;;;;;;;;;5076833;28;20048;-64
2023/04/27 13:08:52;;;;;;;9.18;6.63;;;;;;;;;;5069724;28;20032;-63
2023/04/27 13:11:18;;;;;;;11.30;7.18;;;;;;;;;;5058388;28;20475;-65
2023/04/27 13:13:43;;;;;;;10.15;6.90;;;;;;;;;;5066201;28;20076;-65
2023/04/27 13:16:10;;;;;;;11.98;7.38;;;;;;;;;;5064430;28;20024;-65
2023/04/27 13:18:35;;;;;;;13.32;7.65;;;;;;;;;;5078481;28;20036;-65
2023/04/27 13:21:01;;;;;;;13.10;8.02;;;;;;;;;;5068523;28;20444;-65
2023/04/27 13:23:27;;;;;;;12.30;9.02;;;;;;;;;;5066902;28;20016;-65
2023/04/27 13:25:52;;;;;;;15.60;8.13;;;;;;;;;;5058291;28;20032;-65
2023/04/27 13:28:17;;;;;;;10.20;8.23;;;;;;;;;;5079320;28;20780;-63
2023/04/27 13:30:42;;;;;;;11.95;8.52;;;;;;;;;;5074513;28;20016;-63
2023/04/27 13:33:11;;;;;;;13.60;7.43;;;;;;;;;;5074155;28;20070;-65
2023/04/27 13:35:36;;;;;;;10.88;7.05;;;;;;;;;;5077583;28;20270;-64
2023/04/27 13:38:01;;;;;;;10.87;8.03;;;;;;;;;;5076732;28;20042;-63
2023/04/27 13:40:27;;;;;;;11.10;7.57;;;;;;;;;;5057634;28;20388;-63
2023/04/27 13:42:52;;;;;;;12.13;7.50;;;;;;;;;;5066528;28;20806;-61
2023/04/27 13:45:18;;;;;;;15.43;9.17;;;;;;;;;;5068439;28;20107;-62
2023/04/27 13:47:43;;;;;;;12.10;8.07;;;;;;;;;;5062838;28;21199;-62
2023/04/27 13:50:09;;;;;;;13.23;7.90;;;;;;;;;;5068953;28;20277;-63
2023/04/27 13:52:35;;;;;;;12.27;8.38;;;;;;;;;;5032381;28;20270;-60
2023/04/27 13:55:01;;;;;;;11.27;8.32;;;;;;;;;;5043445;28;20055;-60
2023/04/27 13:57:26;;;;;;;16.02;8.02;;;;;;;;;;5049533;28;20911;-64
2023/04/27 13:59:52;;;;;;;9.45;7.22;;;;;;;;;;5060919;28;20039;-66
2023/04/27 14:02:17;;;;;;;17.70;8.07;;;;;;;;;;5059921;28;20028;-63
2023/04/27 14:04:43;;;;;;;14.23;8.38;;;;;;;;;;5058085;28;20024;-60
2023/04/27 14:07:08;;;;;;;11.77;6.72;;;;;;;;;;5049201;28;20101;-61
2023/04/27 14:09:33;;;;;;;11.50;7.57;;;;;;;;;;5034257;28;20020;-61
2023/04/27 14:11:59;;;;;;;12.60;9.23;;;;;;;;;;5046297;28;20334;-61
2023/04/27 14:14:24;;;;;;;15.35;9.45;;;;;;;;;;5044066;28;20087;-64
2023/04/27 14:16:50;;;;;;;14.07;8.93;;;;;;;;;;5046607;28;20021;-63
2023/04/27 14:19:15;;;;;;;12.50;9.63;;;;;;;;;;5046401;28;20135;-64